Archival Weather

Lamerd

Lamerd, Iran (OISR)

Report from: Saturday, April 1, 2023 10:00 AM UTC
Current time: Saturday, June 22, 2024 12:58 AM UTC

Current weather – Weather history – Daily summaries
Weather forecast

Temperature31.0°C (87.8°F)
Heat index29.5°C (85.1°F)
Dew point10.0°C (50.0°F)
Winds 12 kts (6.2 m/s, 13.8 mph) West (270°)
Visibility6.2 mi. (10 km)
Clouds Few clouds with towering cumulus 3,500 ft. (1,067 m)
Altimeter29.85 in.Hg (1011 mB)
Relative humidity27 %
Density altitude2,087 ft. (636 m)
Remarks No significant changes expected in the next two hours
Flight conditions Visual Meteorological Conditions
Raw dataOISR 011000Z 27012KT 9999 FEW035TCU 31/10 Q1010 A2985 NOSIG
An error has occurred. This application may no longer respond until reloaded. Reload 🗙